sensor_id;sensor_type;location;lat;lon;timestamp;temperature;humidity
61591;DHT22;57639;52.410;-1.966;2022-08-25T00:00:49;22.30;66.20
61591;DHT22;57639;52.410;-1.966;2022-08-25T00:03:57;22.30;66.20
61591;DHT22;57639;52.410;-1.966;2022-08-25T00:07:04;22.20;66.20
61591;DHT22;57639;52.410;-1.966;2022-08-25T00:10:12;22.30;66.20
61591;DHT22;57639;52.410;-1.966;2022-08-25T00:13:19;22.20;66.20
61591;DHT22;57639;52.410;-1.966;2022-08-25T00:16:32;22.30;66.10
61591;DHT22;57639;52.410;-1.966;2022-08-25T00:19:39;22.30;66.10
61591;DHT22;57639;52.410;-1.966;2022-08-25T00:22:47;22.30;66.10
61591;DHT22;57639;52.410;-1.966;2022-08-25T00:25:54;22.30;66.10
61591;DHT22;57639;52.410;-1.966;2022-08-25T00:29:02;22.30;66.20
61591;DHT22;57639;52.410;-1.966;2022-08-25T00:32:12;22.30;66.10
61591;DHT22;57639;52.410;-1.966;2022-08-25T00:35:22;22.20;66.10
61591;DHT22;57639;52.410;-1.966;2022-08-25T00:38:29;22.20;66.10
61591;DHT22;57639;52.410;-1.966;2022-08-25T00:41:39;22.30;66.10
61591;DHT22;57639;52.410;-1.966;2022-08-25T00:44:46;22.30;66.10
61591;DHT22;57639;52.410;-1.966;2022-08-25T00:47:58;22.20;66.00
61591;DHT22;57639;52.410;-1.966;2022-08-25T00:51:07;22.20;66.10
61591;DHT22;57639;52.410;-1.966;2022-08-25T00:54:18;22.20;66.20
61591;DHT22;57639;52.410;-1.966;2022-08-25T00:57:29;22.20;66.10
61591;DHT22;57639;52.410;-1.966;2022-08-25T01:00:41;22.20;66.10
61591;DHT22;57639;52.410;-1.966;2022-08-25T01:03:52;22.20;66.00
61591;DHT22;57639;52.410;-1.966;2022-08-25T01:07:00;22.20;66.00
61591;DHT22;57639;52.410;-1.966;2022-08-25T01:10:08;22.20;66.00
61591;DHT22;57639;52.410;-1.966;2022-08-25T01:13:19;22.20;65.90
61591;DHT22;57639;52.410;-1.966;2022-08-25T01:16:29;22.20;66.00
61591;DHT22;57639;52.410;-1.966;2022-08-25T01:19:39;22.20;65.90
61591;DHT22;57639;52.410;-1.966;2022-08-25T01:22:50;22.20;65.80
61591;DHT22;57639;52.410;-1.966;2022-08-25T01:26:03;22.20;65.90
61591;DHT22;57639;52.410;-1.966;2022-08-25T01:29:11;22.20;65.80
61591;DHT22;57639;52.410;-1.966;2022-08-25T01:32:32;22.20;65.80
61591;DHT22;57639;52.410;-1.966;2022-08-25T01:35:40;22.10;65.80
61591;DHT22;57639;52.410;-1.966;2022-08-25T01:38:50;22.10;65.80
61591;DHT22;57639;52.410;-1.966;2022-08-25T01:42:22;22.10;65.80
61591;DHT22;57639;52.410;-1.966;2022-08-25T01:45:31;22.10;65.80
61591;DHT22;57639;52.410;-1.966;2022-08-25T01:48:38;22.10;65.80
61591;DHT22;57639;52.410;-1.966;2022-08-25T01:51:50;22.10;65.70
61591;DHT22;57639;52.410;-1.966;2022-08-25T01:55:01;22.10;65.70
61591;DHT22;57639;52.410;-1.966;2022-08-25T01:58:08;22.10;65.70
61591;DHT22;57639;52.410;-1.966;2022-08-25T02:01:20;22.20;65.70
61591;DHT22;57639;52.410;-1.966;2022-08-25T02:04:28;22.10;65.60
61591;DHT22;57639;52.410;-1.966;2022-08-25T02:07:37;22.10;65.60
61591;DHT22;57639;52.410;-1.966;2022-08-25T02:10:48;22.10;65.60
61591;DHT22;57639;52.410;-1.966;2022-08-25T02:13:56;22.20;65.60
61591;DHT22;57639;52.410;-1.966;2022-08-25T02:17:05;22.10;65.50
61591;DHT22;57639;52.410;-1.966;2022-08-25T02:20:13;22.10;65.60
61591;DHT22;57639;52.410;-1.966;2022-08-25T02:23:20;22.10;65.60
61591;DHT22;57639;52.410;-1.966;2022-08-25T02:26:30;22.10;65.50
61591;DHT22;57639;52.410;-1.966;2022-08-25T02:29:38;22.10;65.50
61591;DHT22;57639;52.410;-1.966;2022-08-25T02:32:46;22.10;65.60
61591;DHT22;57639;52.410;-1.966;2022-08-25T02:35:56;22.10;65.50
61591;DHT22;57639;52.410;-1.966;2022-08-25T02:39:05;22.10;65.50
61591;DHT22;57639;52.410;-1.966;2022-08-25T02:42:16;22.10;65.50
61591;DHT22;57639;52.410;-1.966;2022-08-25T02:45:25;22.10;65.50
61591;DHT22;57639;52.410;-1.966;2022-08-25T02:48:32;22.10;65.50
61591;DHT22;57639;52.410;-1.966;2022-08-25T02:51:40;22.10;65.50
61591;DHT22;57639;52.410;-1.966;2022-08-25T02:54:48;22.10;65.50
61591;DHT22;57639;52.410;-1.966;2022-08-25T02:57:58;22.10;65.50
61591;DHT22;57639;52.410;-1.966;2022-08-25T03:01:06;22.10;65.40
61591;DHT22;57639;52.410;-1.966;2022-08-25T03:04:15;22.10;65.40
61591;DHT22;57639;52.410;-1.966;2022-08-25T03:07:22;22.10;65.40
61591;DHT22;57639;52.410;-1.966;2022-08-25T03:10:31;22.10;65.40
61591;DHT22;57639;52.410;-1.966;2022-08-25T03:13:41;22.10;65.30
61591;DHT22;57639;52.410;-1.966;2022-08-25T03:16:49;22.10;65.30
61591;DHT22;57639;52.410;-1.966;2022-08-25T03:19:57;22.10;65.30
61591;DHT22;57639;52.410;-1.966;2022-08-25T03:23:05;22.10;65.40
61591;DHT22;57639;52.410;-1.966;2022-08-25T03:26:13;22.10;65.30
61591;DHT22;57639;52.410;-1.966;2022-08-25T03:29:39;22.10;65.20
61591;DHT22;57639;52.410;-1.966;2022-08-25T03:32:46;22.10;65.30
61591;DHT22;57639;52.410;-1.966;2022-08-25T03:35:55;22.10;65.20
61591;DHT22;57639;52.410;-1.966;2022-08-25T03:39:03;22.00;65.20
61591;DHT22;57639;52.410;-1.966;2022-08-25T03:42:11;22.10;65.20
61591;DHT22;57639;52.410;-1.966;2022-08-25T03:45:22;22.10;65.20
61591;DHT22;57639;52.410;-1.966;2022-08-25T03:48:30;22.00;65.30
61591;DHT22;57639;52.410;-1.966;2022-08-25T03:51:40;22.00;65.20
61591;DHT22;57639;52.410;-1.966;2022-08-25T03:54:48;22.00;65.10
61591;DHT22;57639;52.410;-1.966;2022-08-25T03:57:54;22.10;65.10
61591;DHT22;57639;52.410;-1.966;2022-08-25T04:01:04;22.10;64.90
61591;DHT22;57639;52.410;-1.966;2022-08-25T04:04:14;22.10;64.80
61591;DHT22;57639;52.410;-1.966;2022-08-25T04:07:21;22.10;64.80
61591;DHT22;57639;52.410;-1.966;2022-08-25T04:10:29;22.10;64.80
61591;DHT22;57639;52.410;-1.966;2022-08-25T04:13:37;22.10;64.80
61591;DHT22;57639;52.410;-1.966;2022-08-25T04:16:48;22.10;64.70
61591;DHT22;57639;52.410;-1.966;2022-08-25T04:19:56;22.10;64.80
61591;DHT22;57639;52.410;-1.966;2022-08-25T04:23:04;22.10;64.90
61591;DHT22;57639;52.410;-1.966;2022-08-25T04:26:13;22.10;65.00
61591;DHT22;57639;52.410;-1.966;2022-08-25T04:29:22;22.10;65.10
61591;DHT22;57639;52.410;-1.966;2022-08-25T04:32:34;22.00;65.20
61591;DHT22;57639;52.410;-1.966;2022-08-25T04:35:46;22.00;65.20
61591;DHT22;57639;52.410;-1.966;2022-08-25T04:38:54;22.00;65.10
61591;DHT22;57639;52.410;-1.966;2022-08-25T04:42:02;22.00;65.20
61591;DHT22;57639;52.410;-1.966;2022-08-25T04:45:10;22.00;65.10
61591;DHT22;57639;52.410;-1.966;2022-08-25T04:48:20;22.00;65.10
61591;DHT22;57639;52.410;-1.966;2022-08-25T04:51:30;22.00;65.00
61591;DHT22;57639;52.410;-1.966;2022-08-25T04:54:39;22.00;65.10
61591;DHT22;57639;52.410;-1.966;2022-08-25T04:57:46;22.00;65.10
61591;DHT22;57639;52.410;-1.966;2022-08-25T05:01:00;22.00;65.00
61591;DHT22;57639;52.410;-1.966;2022-08-25T05:04:12;22.00;65.00
61591;DHT22;57639;52.410;-1.966;2022-08-25T05:07:31;22.00;64.90
61591;DHT22;57639;52.410;-1.966;2022-08-25T05:10:39;22.00;65.00
61591;DHT22;57639;52.410;-1.966;2022-08-25T05:13:48;22.00;64.90
61591;DHT22;57639;52.410;-1.966;2022-08-25T05:16:57;22.00;64.80
61591;DHT22;57639;52.410;-1.966;2022-08-25T05:20:08;22.00;64.80
61591;DHT22;57639;52.410;-1.966;2022-08-25T05:23:16;22.00;64.80
61591;DHT22;57639;52.410;-1.966;2022-08-25T05:26:25;22.00;64.90
61591;DHT22;57639;52.410;-1.966;2022-08-25T05:29:33;21.90;64.80
61591;DHT22;57639;52.410;-1.966;2022-08-25T05:32:41;21.90;64.80
61591;DHT22;57639;52.410;-1.966;2022-08-25T05:35:51;22.00;64.80
61591;DHT22;57639;52.410;-1.966;2022-08-25T05:38:59;22.00;64.70
61591;DHT22;57639;52.410;-1.966;2022-08-25T05:42:07;21.90;64.70
61591;DHT22;57639;52.410;-1.966;2022-08-25T05:45:14;21.90;64.80
61591;DHT22;57639;52.410;-1.966;2022-08-25T05:48:25;21.90;64.70
61591;DHT22;57639;52.410;-1.966;2022-08-25T05:51:36;21.90;64.60
61591;DHT22;57639;52.410;-1.966;2022-08-25T05:54:43;21.90;64.70
61591;DHT22;57639;52.410;-1.966;2022-08-25T05:57:50;22.00;64.70
61591;DHT22;57639;52.410;-1.966;2022-08-25T06:00:59;21.90;64.70
61591;DHT22;57639;52.410;-1.966;2022-08-25T06:04:28;21.90;64.70
61591;DHT22;57639;52.410;-1.966;2022-08-25T06:07:38;21.90;64.60
61591;DHT22;57639;52.410;-1.966;2022-08-25T06:10:50;21.90;64.50
61591;DHT22;57639;52.410;-1.966;2022-08-25T06:14:00;21.90;64.60
61591;DHT22;57639;52.410;-1.966;2022-08-25T06:17:08;21.90;64.60
61591;DHT22;57639;52.410;-1.966;2022-08-25T06:20:18;21.90;64.60
61591;DHT22;57639;52.410;-1.966;2022-08-25T06:23:31;21.90;64.50
61591;DHT22;57639;52.410;-1.966;2022-08-25T06:26:39;21.90;64.50
61591;DHT22;57639;52.410;-1.966;2022-08-25T06:29:47;21.90;64.60
61591;DHT22;57639;52.410;-1.966;2022-08-25T06:32:58;21.90;64.60
61591;DHT22;57639;52.410;-1.966;2022-08-25T06:36:07;21.90;64.60
61591;DHT22;57639;52.410;-1.966;2022-08-25T06:39:17;21.90;64.60
61591;DHT22;57639;52.410;-1.966;2022-08-25T06:42:25;21.80;64.50
61591;DHT22;57639;52.410;-1.966;2022-08-25T06:45:32;21.90;64.50
61591;DHT22;57639;52.410;-1.966;2022-08-25T06:48:41;21.80;64.50
61591;DHT22;57639;52.410;-1.966;2022-08-25T06:51:49;21.80;64.50
61591;DHT22;57639;52.410;-1.966;2022-08-25T06:54:59;21.90;64.40
61591;DHT22;57639;52.410;-1.966;2022-08-25T06:58:07;21.90;64.50
61591;DHT22;57639;52.410;-1.966;2022-08-25T07:01:18;21.80;64.50
61591;DHT22;57639;52.410;-1.966;2022-08-25T07:04:29;21.90;64.40
61591;DHT22;57639;52.410;-1.966;2022-08-25T07:07:36;21.90;64.40
61591;DHT22;57639;52.410;-1.966;2022-08-25T07:10:49;21.80;64.40
61591;DHT22;57639;52.410;-1.966;2022-08-25T07:13:57;21.80;64.40
61591;DHT22;57639;52.410;-1.966;2022-08-25T07:17:05;21.90;64.40
61591;DHT22;57639;52.410;-1.966;2022-08-25T07:20:16;21.80;64.40
61591;DHT22;57639;52.410;-1.966;2022-08-25T07:23:25;21.80;64.40
61591;DHT22;57639;52.410;-1.966;2022-08-25T07:26:36;21.80;64.40
61591;DHT22;57639;52.410;-1.966;2022-08-25T07:29:45;21.80;64.40
61591;DHT22;57639;52.410;-1.966;2022-08-25T07:32:53;21.80;64.30
61591;DHT22;57639;52.410;-1.966;2022-08-25T07:36:01;21.90;64.30
61591;DHT22;57639;52.410;-1.966;2022-08-25T07:39:06;21.90;64.30
61591;DHT22;57639;52.410;-1.966;2022-08-25T07:42:16;21.80;64.20
61591;DHT22;57639;52.410;-1.966;2022-08-25T07:45:27;21.80;64.30
61591;DHT22;57639;52.410;-1.966;2022-08-25T07:48:35;21.80;64.20
61591;DHT22;57639;52.410;-1.966;2022-08-25T07:51:43;21.80;64.20
61591;DHT22;57639;52.410;-1.966;2022-08-25T07:55:09;21.90;64.30
61591;DHT22;57639;52.410;-1.966;2022-08-25T07:58:23;21.80;64.30
61591;DHT22;57639;52.410;-1.966;2022-08-25T08:01:31;21.80;64.20
61591;DHT22;57639;52.410;-1.966;2022-08-25T08:04:41;21.80;64.30
61591;DHT22;57639;52.410;-1.966;2022-08-25T08:07:49;21.80;64.30
61591;DHT22;57639;52.410;-1.966;2022-08-25T08:10:57;21.80;64.20
61591;DHT22;57639;52.410;-1.966;2022-08-25T08:14:11;21.80;64.20
61591;DHT22;57639;52.410;-1.966;2022-08-25T08:17:20;21.80;64.20
61591;DHT22;57639;52.410;-1.966;2022-08-25T08:20:28;21.80;64.20
61591;DHT22;57639;52.410;-1.966;2022-08-25T08:23:46;21.80;64.20
61591;DHT22;57639;52.410;-1.966;2022-08-25T08:27:01;21.80;64.20
61591;DHT22;57639;52.410;-1.966;2022-08-25T08:30:12;21.80;64.20
61591;DHT22;57639;52.410;-1.966;2022-08-25T08:33:22;21.80;64.20
61591;DHT22;57639;52.410;-1.966;2022-08-25T08:36:30;21.80;64.20
61591;DHT22;57639;52.410;-1.966;2022-08-25T08:39:39;21.80;64.20
61591;DHT22;57639;52.410;-1.966;2022-08-25T08:42:55;21.80;64.20
61591;DHT22;57639;52.410;-1.966;2022-08-25T08:46:10;21.80;64.20
61591;DHT22;57639;52.410;-1.966;2022-08-25T08:49:24;21.80;64.20
61591;DHT22;57639;52.410;-1.966;2022-08-25T08:52:39;21.70;64.10
61591;DHT22;57639;52.410;-1.966;2022-08-25T08:55:55;21.80;64.10
61591;DHT22;57639;52.410;-1.966;2022-08-25T08:59:06;21.80;64.10
61591;DHT22;57639;52.410;-1.966;2022-08-25T09:02:25;21.70;64.10
61591;DHT22;57639;52.410;-1.966;2022-08-25T09:05:58;21.80;64.10
61591;DHT22;57639;52.410;-1.966;2022-08-25T09:09:12;21.80;64.10
61591;DHT22;57639;52.410;-1.966;2022-08-25T09:12:29;21.70;64.10
61591;DHT22;57639;52.410;-1.966;2022-08-25T09:15:46;21.70;64.10
61591;DHT22;57639;52.410;-1.966;2022-08-25T09:23:11;21.70;64.10
61591;DHT22;57639;52.410;-1.966;2022-08-25T09:26:28;21.70;64.10
61591;DHT22;57639;52.410;-1.966;2022-08-25T09:29:56;21.70;64.10
61591;DHT22;57639;52.410;-1.966;2022-08-25T09:33:09;21.70;64.10
61591;DHT22;57639;52.410;-1.966;2022-08-25T09:36:26;21.70;64.00
61591;DHT22;57639;52.410;-1.966;2022-08-25T09:39:40;21.70;64.00
61591;DHT22;57639;52.410;-1.966;2022-08-25T09:42:50;21.70;64.00
61591;DHT22;57639;52.410;-1.966;2022-08-25T09:46:07;21.70;64.00
61591;DHT22;57639;52.410;-1.966;2022-08-25T09:49:16;21.70;64.00
61591;DHT22;57639;52.410;-1.966;2022-08-25T09:52:31;21.70;64.00
61591;DHT22;57639;52.410;-1.966;2022-08-25T09:55:40;21.70;64.00
61591;DHT22;57639;52.410;-1.966;2022-08-25T09:58:50;21.70;64.00
61591;DHT22;57639;52.410;-1.966;2022-08-25T10:01:59;21.70;64.00
61591;DHT22;57639;52.410;-1.966;2022-08-25T10:05:19;21.70;64.10
61591;DHT22;57639;52.410;-1.966;2022-08-25T10:08:36;21.70;64.00
61591;DHT22;57639;52.410;-1.966;2022-08-25T10:11:46;21.70;64.00
61591;DHT22;57639;52.410;-1.966;2022-08-25T10:15:15;21.70;64.00
61591;DHT22;57639;52.410;-1.966;2022-08-25T10:18:33;21.70;64.00
61591;DHT22;57639;52.410;-1.966;2022-08-25T10:21:42;21.70;63.90
61591;DHT22;57639;52.410;-1.966;2022-08-25T10:24:55;21.70;63.90
61591;DHT22;57639;52.410;-1.966;2022-08-25T10:28:10;21.70;63.90
61591;DHT22;57639;52.410;-1.966;2022-08-25T10:31:24;21.70;63.90
61591;DHT22;57639;52.410;-1.966;2022-08-25T10:34:45;21.70;63.90
61591;DHT22;57639;52.410;-1.966;2022-08-25T10:38:04;21.60;63.90
61591;DHT22;57639;52.410;-1.966;2022-08-25T10:41:43;21.70;63.90
61591;DHT22;57639;52.410;-1.966;2022-08-25T10:45:07;21.70;63.90
61591;DHT22;57639;52.410;-1.966;2022-08-25T10:48:44;21.60;63.90
61591;DHT22;57639;52.410;-1.966;2022-08-25T10:51:59;21.60;63.90
61591;DHT22;57639;52.410;-1.966;2022-08-25T10:55:15;21.60;64.00
61591;DHT22;57639;52.410;-1.966;2022-08-25T10:58:45;21.60;63.90
61591;DHT22;57639;52.410;-1.966;2022-08-25T11:05:38;21.60;63.90
61591;DHT22;57639;52.410;-1.966;2022-08-25T11:08:50;21.60;63.90
61591;DHT22;57639;52.410;-1.966;2022-08-25T11:12:02;21.60;63.90
61591;DHT22;57639;52.410;-1.966;2022-08-25T11:15:19;21.60;63.80
61591;DHT22;57639;52.410;-1.966;2022-08-25T11:18:29;21.60;63.80
61591;DHT22;57639;52.410;-1.966;2022-08-25T11:21:47;21.60;63.80
61591;DHT22;57639;52.410;-1.966;2022-08-25T11:25:01;21.60;63.80
61591;DHT22;57639;52.410;-1.966;2022-08-25T11:28:17;21.60;63.80
61591;DHT22;57639;52.410;-1.966;2022-08-25T11:31:35;21.60;63.70
61591;DHT22;57639;52.410;-1.966;2022-08-25T11:34:44;21.60;63.70
61591;DHT22;57639;52.410;-1.966;2022-08-25T11:38:04;21.60;63.70
61591;DHT22;57639;52.410;-1.966;2022-08-25T11:41:23;21.60;63.70
61591;DHT22;57639;52.410;-1.966;2022-08-25T11:44:44;21.60;63.70
61591;DHT22;57639;52.410;-1.966;2022-08-25T11:48:11;21.60;63.70
61591;DHT22;57639;52.410;-1.966;2022-08-25T11:51:29;21.60;63.60
61591;DHT22;57639;52.410;-1.966;2022-08-25T11:54:43;21.60;63.70
61591;DHT22;57639;52.410;-1.966;2022-08-25T11:58:16;21.60;63.60
61591;DHT22;57639;52.410;-1.966;2022-08-25T12:05:51;21.60;63.60
61591;DHT22;57639;52.410;-1.966;2022-08-25T12:09:20;21.60;63.60
61591;DHT22;57639;52.410;-1.966;2022-08-25T12:12:30;21.60;63.70
61591;DHT22;57639;52.410;-1.966;2022-08-25T12:15:58;21.60;63.60
61591;DHT22;57639;52.410;-1.966;2022-08-25T12:19:25;21.60;63.60
61591;DHT22;57639;52.410;-1.966;2022-08-25T12:22:54;21.50;63.60
61591;DHT22;57639;52.410;-1.966;2022-08-25T12:26:07;21.60;63.50
61591;DHT22;57639;52.410;-1.966;2022-08-25T12:29:26;21.60;63.50
61591;DHT22;57639;52.410;-1.966;2022-08-25T12:32:49;21.60;63.50
61591;DHT22;57639;52.410;-1.966;2022-08-25T12:36:01;21.60;63.40
61591;DHT22;57639;52.410;-1.966;2022-08-25T12:39:20;21.60;63.20
61591;DHT22;57639;52.410;-1.966;2022-08-25T12:42:31;21.70;63.20
61591;DHT22;57639;52.410;-1.966;2022-08-25T12:45:44;21.70;63.20
61591;DHT22;57639;52.410;-1.966;2022-08-25T12:48:54;21.70;63.10
61591;DHT22;57639;52.410;-1.966;2022-08-25T12:52:05;21.70;63.10
61591;DHT22;57639;52.410;-1.966;2022-08-25T12:55:18;21.70;63.20
61591;DHT22;57639;52.410;-1.966;2022-08-25T12:58:32;21.70;63.10
61591;DHT22;57639;52.410;-1.966;2022-08-25T13:02:18;21.70;63.10
61591;DHT22;57639;52.410;-1.966;2022-08-25T13:06:02;21.70;63.20
61591;DHT22;57639;52.410;-1.966;2022-08-25T13:09:46;21.80;63.20
61591;DHT22;57639;52.410;-1.966;2022-08-25T13:13:09;21.80;63.10
61591;DHT22;57639;52.410;-1.966;2022-08-25T13:16:22;21.70;63.20
61591;DHT22;57639;52.410;-1.966;2022-08-25T13:19:33;21.70;63.20
61591;DHT22;57639;52.410;-1.966;2022-08-25T13:22:43;21.70;63.20
61591;DHT22;57639;52.410;-1.966;2022-08-25T13:25:52;21.80;63.20
61591;DHT22;57639;52.410;-1.966;2022-08-25T13:29:19;21.80;63.10
61591;DHT22;57639;52.410;-1.966;2022-08-25T13:32:30;21.80;63.20
61591;DHT22;57639;52.410;-1.966;2022-08-25T13:35:38;21.80;63.00
61591;DHT22;57639;52.410;-1.966;2022-08-25T13:39:10;21.80;63.10
61591;DHT22;57639;52.410;-1.966;2022-08-25T13:42:18;21.80;63.30
61591;DHT22;57639;52.410;-1.966;2022-08-25T13:45:37;21.80;63.30
61591;DHT22;57639;52.410;-1.966;2022-08-25T13:48:46;21.80;63.30
61591;DHT22;57639;52.410;-1.966;2022-08-25T13:51:55;21.80;63.40
61591;DHT22;57639;52.410;-1.966;2022-08-25T13:55:04;21.80;63.50
61591;DHT22;57639;52.410;-1.966;2022-08-25T13:58:14;21.80;63.60
61591;DHT22;57639;52.410;-1.966;2022-08-25T14:01:46;21.80;63.60
61591;DHT22;57639;52.410;-1.966;2022-08-25T14:04:54;21.80;63.50
61591;DHT22;57639;52.410;-1.966;2022-08-25T14:08:03;21.80;63.50
61591;DHT22;57639;52.410;-1.966;2022-08-25T14:11:30;21.90;63.50
61591;DHT22;57639;52.410;-1.966;2022-08-25T14:14:38;21.80;63.60
61591;DHT22;57639;52.410;-1.966;2022-08-25T14:17:59;21.90;63.50
61591;DHT22;57639;52.410;-1.966;2022-08-25T14:21:09;21.80;63.30
61591;DHT22;57639;52.410;-1.966;2022-08-25T14:24:19;21.80;63.20
61591;DHT22;57639;52.410;-1.966;2022-08-25T14:27:28;21.90;63.20
61591;DHT22;57639;52.410;-1.966;2022-08-25T14:30:48;21.80;63.20
61591;DHT22;57639;52.410;-1.966;2022-08-25T14:34:01;21.80;63.30
61591;DHT22;57639;52.410;-1.966;2022-08-25T14:37:12;21.80;63.20
61591;DHT22;57639;52.410;-1.966;2022-08-25T14:40:20;21.90;63.20
61591;DHT22;57639;52.410;-1.966;2022-08-25T14:43:27;21.80;63.10
61591;DHT22;57639;52.410;-1.966;2022-08-25T14:46:37;21.90;62.90
61591;DHT22;57639;52.410;-1.966;2022-08-25T14:49:48;21.80;62.90
61591;DHT22;57639;52.410;-1.966;2022-08-25T14:52:56;21.90;62.90
61591;DHT22;57639;52.410;-1.966;2022-08-25T14:56:04;21.80;63.00
61591;DHT22;57639;52.410;-1.966;2022-08-25T14:59:13;21.80;63.00
61591;DHT22;57639;52.410;-1.966;2022-08-25T15:02:22;21.90;63.10
61591;DHT22;57639;52.410;-1.966;2022-08-25T15:05:36;21.90;63.00
61591;DHT22;57639;52.410;-1.966;2022-08-25T15:08:43;21.90;63.10
61591;DHT22;57639;52.410;-1.966;2022-08-25T15:12:07;21.90;63.10
61591;DHT22;57639;52.410;-1.966;2022-08-25T15:15:21;21.90;63.00
61591;DHT22;57639;52.410;-1.966;2022-08-25T15:18:29;22.00;63.00
61591;DHT22;57639;52.410;-1.966;2022-08-25T15:21:40;22.00;63.00
61591;DHT22;57639;52.410;-1.966;2022-08-25T15:24:47;22.00;63.00
61591;DHT22;57639;52.410;-1.966;2022-08-25T15:27:56;22.00;63.00
61591;DHT22;57639;52.410;-1.966;2022-08-25T15:31:03;22.00;62.90
61591;DHT22;57639;52.410;-1.966;2022-08-25T15:34:11;22.00;62.90
61591;DHT22;57639;52.410;-1.966;2022-08-25T15:37:21;22.00;63.00
61591;DHT22;57639;52.410;-1.966;2022-08-25T15:40:29;21.90;63.00
61591;DHT22;57639;52.410;-1.966;2022-08-25T15:43:37;22.00;63.00
61591;DHT22;57639;52.410;-1.966;2022-08-25T15:46:46;21.90;63.10
61591;DHT22;57639;52.410;-1.966;2022-08-25T15:50:02;22.00;63.10
61591;DHT22;57639;52.410;-1.966;2022-08-25T15:53:13;22.00;63.20
61591;DHT22;57639;52.410;-1.966;2022-08-25T15:56:21;21.90;63.00
61591;DHT22;57639;52.410;-1.966;2022-08-25T15:59:29;21.90;63.00
61591;DHT22;57639;52.410;-1.966;2022-08-25T16:02:37;21.90;63.10
61591;DHT22;57639;52.410;-1.966;2022-08-25T16:05:48;21.90;63.00
61591;DHT22;57639;52.410;-1.966;2022-08-25T16:08:59;21.90;63.00
61591;DHT22;57639;52.410;-1.966;2022-08-25T16:12:07;22.00;63.00
61591;DHT22;57639;52.410;-1.966;2022-08-25T16:15:16;22.00;63.10
61591;DHT22;57639;52.410;-1.966;2022-08-25T16:18:27;21.90;63.10
61591;DHT22;57639;52.410;-1.966;2022-08-25T16:21:34;22.00;63.10
61591;DHT22;57639;52.410;-1.966;2022-08-25T16:24:52;22.00;63.00
61591;DHT22;57639;52.410;-1.966;2022-08-25T16:28:00;22.00;63.10
61591;DHT22;57639;52.410;-1.966;2022-08-25T16:31:09;21.90;63.10
61591;DHT22;57639;52.410;-1.966;2022-08-25T16:34:17;22.00;63.10
61591;DHT22;57639;52.410;-1.966;2022-08-25T16:37:27;22.00;63.10
61591;DHT22;57639;52.410;-1.966;2022-08-25T16:40:40;22.00;63.10
61591;DHT22;57639;52.410;-1.966;2022-08-25T16:43:49;22.00;63.10
61591;DHT22;57639;52.410;-1.966;2022-08-25T16:46:59;22.00;63.00
61591;DHT22;57639;52.410;-1.966;2022-08-25T16:50:12;21.90;63.00
61591;DHT22;57639;52.410;-1.966;2022-08-25T16:53:20;21.90;63.10
61591;DHT22;57639;52.410;-1.966;2022-08-25T16:56:46;21.90;63.00
61591;DHT22;57639;52.410;-1.966;2022-08-25T16:59:58;21.90;63.10
61591;DHT22;57639;52.410;-1.966;2022-08-25T17:03:05;21.90;63.00
61591;DHT22;57639;52.410;-1.966;2022-08-25T17:06:13;21.90;62.90
61591;DHT22;57639;52.410;-1.966;2022-08-25T17:09:21;21.90;62.90
61591;DHT22;57639;52.410;-1.966;2022-08-25T17:12:31;21.90;62.90
61591;DHT22;57639;52.410;-1.966;2022-08-25T17:15:40;21.90;62.80
61591;DHT22;57639;52.410;-1.966;2022-08-25T17:18:48;21.90;62.80
61591;DHT22;57639;52.410;-1.966;2022-08-25T17:21:57;21.90;62.90
61591;DHT22;57639;52.410;-1.966;2022-08-25T17:25:06;21.90;62.90
61591;DHT22;57639;52.410;-1.966;2022-08-25T17:28:17;21.80;62.80
61591;DHT22;57639;52.410;-1.966;2022-08-25T17:31:25;21.80;62.80
61591;DHT22;57639;52.410;-1.966;2022-08-25T17:34:34;21.80;62.80
61591;DHT22;57639;52.410;-1.966;2022-08-25T17:37:42;21.80;62.90
61591;DHT22;57639;52.410;-1.966;2022-08-25T17:40:54;21.80;62.80
61591;DHT22;57639;52.410;-1.966;2022-08-25T17:44:05;21.80;62.80
61591;DHT22;57639;52.410;-1.966;2022-08-25T17:47:13;21.80;62.80
61591;DHT22;57639;52.410;-1.966;2022-08-25T17:50:20;21.80;62.80
61591;DHT22;57639;52.410;-1.966;2022-08-25T17:53:29;21.80;62.90
61591;DHT22;57639;52.410;-1.966;2022-08-25T17:56:36;21.80;62.90
61591;DHT22;57639;52.410;-1.966;2022-08-25T17:59:47;21.80;63.00
61591;DHT22;57639;52.410;-1.966;2022-08-25T18:02:54;21.80;63.00
61591;DHT22;57639;52.410;-1.966;2022-08-25T18:06:03;21.80;63.00
61591;DHT22;57639;52.410;-1.966;2022-08-25T18:09:10;21.80;63.00
61591;DHT22;57639;52.410;-1.966;2022-08-25T18:12:18;21.70;63.20
61591;DHT22;57639;52.410;-1.966;2022-08-25T18:15:33;21.70;63.00
61591;DHT22;57639;52.410;-1.966;2022-08-25T18:18:45;21.70;62.90
61591;DHT22;57639;52.410;-1.966;2022-08-25T18:21:54;21.70;62.80
61591;DHT22;57639;52.410;-1.966;2022-08-25T18:25:09;21.70;62.80
61591;DHT22;57639;52.410;-1.966;2022-08-25T18:28:19;21.70;62.80
61591;DHT22;57639;52.410;-1.966;2022-08-25T18:31:31;21.70;62.80
61591;DHT22;57639;52.410;-1.966;2022-08-25T18:34:39;21.70;62.70
61591;DHT22;57639;52.410;-1.966;2022-08-25T18:37:47;21.70;62.80
61591;DHT22;57639;52.410;-1.966;2022-08-25T18:41:11;21.70;62.80
61591;DHT22;57639;52.410;-1.966;2022-08-25T18:44:16;21.70;62.90
61591;DHT22;57639;52.410;-1.966;2022-08-25T18:47:27;21.70;62.90
61591;DHT22;57639;52.410;-1.966;2022-08-25T18:50:36;21.70;62.90
61591;DHT22;57639;52.410;-1.966;2022-08-25T18:53:46;21.70;62.90
61591;DHT22;57639;52.410;-1.966;2022-08-25T18:56:57;21.70;62.80
61591;DHT22;57639;52.410;-1.966;2022-08-25T19:00:05;21.60;62.90
61591;DHT22;57639;52.410;-1.966;2022-08-25T19:03:17;21.60;62.80
61591;DHT22;57639;52.410;-1.966;2022-08-25T19:06:25;21.60;62.90
61591;DHT22;57639;52.410;-1.966;2022-08-25T19:09:35;21.60;62.90
61591;DHT22;57639;52.410;-1.966;2022-08-25T19:12:42;21.60;63.00
61591;DHT22;57639;52.410;-1.966;2022-08-25T19:15:53;21.60;63.00
61591;DHT22;57639;52.410;-1.966;2022-08-25T19:19:06;21.70;63.00
61591;DHT22;57639;52.410;-1.966;2022-08-25T19:22:15;21.70;63.00
61591;DHT22;57639;52.410;-1.966;2022-08-25T19:25:43;21.70;63.00
61591;DHT22;57639;52.410;-1.966;2022-08-25T19:28:51;21.70;63.00
61591;DHT22;57639;52.410;-1.966;2022-08-25T19:32:00;21.70;63.00
61591;DHT22;57639;52.410;-1.966;2022-08-25T19:35:15;21.60;62.90
61591;DHT22;57639;52.410;-1.966;2022-08-25T19:38:24;21.70;63.00
61591;DHT22;57639;52.410;-1.966;2022-08-25T19:41:39;21.60;63.00
61591;DHT22;57639;52.410;-1.966;2022-08-25T19:44:46;21.60;63.00
61591;DHT22;57639;52.410;-1.966;2022-08-25T19:47:55;21.60;63.00
61591;DHT22;57639;52.410;-1.966;2022-08-25T19:51:06;21.60;63.00
61591;DHT22;57639;52.410;-1.966;2022-08-25T19:54:18;21.60;63.00
61591;DHT22;57639;52.410;-1.966;2022-08-25T19:57:26;21.60;63.00
61591;DHT22;57639;52.410;-1.966;2022-08-25T20:00:46;21.60;63.00
61591;DHT22;57639;52.410;-1.966;2022-08-25T20:03:54;21.60;63.00